AAL1643 TFFR-TNCC
Flight info
| Callsign | AAL1643 |
|---|---|
| Flight time | 1h 30m |
| Altitude | 32000 |
| Route | TULEX2F TULEX DCT BOGSI DCT ACORA ACORA1B |
| Aircraft | B738/M-SDE2E3FGHIRWXY/LB1 |
Departure
| Time | 2026-04-27 13:16 |
|---|---|
| Airport | Maryse Condé International Airport (TFFR) |
Arrival
| Time | 2026-04-27 14:47 |
|---|---|
| Airport | Hato International Airport (TNCC) |
| Time | Latitude | Longitude | Altitude | Speed | Heading |
|---|---|---|---|---|---|
| 2026-04-27 12:50 | 16.26947 | -61.52822 | 24 ft | 0 kts | 7° |
| 2026-04-27 13:05 | 16.26945 | -61.52822 | 24 ft | 1 kts | 7° |
| 2026-04-27 13:05 | 16.26934 | -61.52823 | 29 ft | 2 kts | 7° |
| 2026-04-27 13:05 | 16.26918 | -61.52825 | 27 ft | 2 kts | 7° |
| 2026-04-27 13:06 | 16.26902 | -61.52827 | 29 ft | 2 kts | 7° |
| 2026-04-27 13:06 | 16.26885 | -61.52829 | 28 ft | 2 kts | 7° |
| 2026-04-27 13:06 | 16.26869 | -61.52831 | 28 ft | 2 kts | 359° |
| 2026-04-27 13:06 | 16.26853 | -61.52829 | 27 ft | 2 kts | 330° |
| 2026-04-27 13:07 | 16.26840 | -61.52818 | 26 ft | 2 kts | 298° |
| 2026-04-27 13:07 | 16.26837 | -61.52808 | 28 ft | 1 kts | 277° |
| 2026-04-27 13:07 | 16.26836 | -61.52805 | 28 ft | 0 kts | 280° |
| 2026-04-27 13:10 | 16.26844 | -61.52848 | 24 ft | 11 kts | 280° |
| 2026-04-27 13:10 | 16.26828 | -61.52919 | 26 ft | 11 kts | 225° |
| 2026-04-27 13:11 | 16.26761 | -61.52944 | 28 ft | 10 kts | 191° |
| 2026-04-27 13:11 | 16.26691 | -61.52958 | 26 ft | 10 kts | 191° |
| 2026-04-27 13:11 | 16.26650 | -61.52966 | 27 ft | 0 kts | 191° |
| 2026-04-27 13:12 | 16.26614 | -61.52973 | 27 ft | 13 kts | 191° |
| 2026-04-27 13:12 | 16.26517 | -61.53017 | 23 ft | 16 kts | 237° |
| 2026-04-27 13:12 | 16.26525 | -61.53156 | 24 ft | 25 kts | 281° |
| 2026-04-27 13:12 | 16.26564 | -61.53368 | 27 ft | 35 kts | 281° |
| 2026-04-27 13:13 | 16.26612 | -61.53622 | 27 ft | 35 kts | 281° |
| 2026-04-27 13:13 | 16.26657 | -61.53868 | 25 ft | 33 kts | 281° |
| 2026-04-27 13:13 | 16.26699 | -61.54094 | 25 ft | 31 kts | 281° |
| 2026-04-27 13:13 | 16.26738 | -61.54307 | 26 ft | 29 kts | 281° |
| 2026-04-27 13:14 | 16.26776 | -61.54509 | 23 ft | 27 kts | 281° |
| 2026-04-27 13:14 | 16.26810 | -61.54675 | 28 ft | 19 kts | 293° |
| 2026-04-27 13:14 | 16.26860 | -61.54756 | 24 ft | 11 kts | 271° |
| 2026-04-27 13:14 | 16.26815 | -61.54757 | 25 ft | 9 kts | 111° |
| 2026-04-27 13:15 | 16.26809 | -61.54696 | 27 ft | 9 kts | 101° |
| 2026-04-27 13:15 | 16.26806 | -61.54675 | 25 ft | 0 kts | 101° |
| 2026-04-27 13:15 | 16.26799 | -61.54641 | 23 ft | 19 kts | 101° |
| 2026-04-27 13:15 | 16.26728 | -61.54255 | 24 ft | 88 kts | 101° |
| 2026-04-27 13:16 | 16.26577 | -61.53430 | 28 ft | 145 kts | 101° |
| 2026-04-27 13:16 | 16.26354 | -61.52268 | 308 ft | 171 kts | 103° |
| 2026-04-27 13:16 | 16.26095 | -61.51062 | 1183 ft | 170 kts | 104° |
| 2026-04-27 13:16 | 16.25882 | -61.49871 | 2009 ft | 172 kts | 102° |
| 2026-04-27 13:17 | 16.25652 | -61.48561 | 2264 ft | 193 kts | 102° |
| 2026-04-27 13:17 | 16.25395 | -61.47137 | 2396 ft | 210 kts | 101° |
| 2026-04-27 13:17 | 16.25300 | -61.46619 | 2420 ft | 217 kts | 101° |
| 2026-04-27 13:18 | 16.25062 | -61.45323 | 2620 ft | 226 kts | 102° |
| 2026-04-27 13:18 | 16.24758 | -61.43659 | 2918 ft | 239 kts | 102° |
| 2026-04-27 13:18 | 16.24204 | -61.41996 | 3212 ft | 252 kts | 125° |
| 2026-04-27 13:18 | 16.22883 | -61.40814 | 3761 ft | 258 kts | 154° |
| 2026-04-27 13:19 | 16.21112 | -61.40397 | 4461 ft | 264 kts | 176° |
| 2026-04-27 13:19 | 16.19258 | -61.40435 | 5122 ft | 269 kts | 181° |
| 2026-04-27 13:19 | 16.17386 | -61.40528 | 5774 ft | 271 kts | 180° |
| 2026-04-27 13:19 | 16.15483 | -61.40627 | 6456 ft | 273 kts | 181° |
| 2026-04-27 13:20 | 16.13576 | -61.40717 | 7010 ft | 278 kts | 181° |
| 2026-04-27 13:20 | 16.11643 | -61.40803 | 7582 ft | 280 kts | 181° |
| 2026-04-27 13:20 | 16.09685 | -61.40884 | 8164 ft | 283 kts | 181° |
| 2026-04-27 13:20 | 16.07716 | -61.40962 | 8797 ft | 284 kts | 181° |
| 2026-04-27 13:21 | 16.05735 | -61.41038 | 9420 ft | 288 kts | 182° |
| 2026-04-27 13:21 | 16.03704 | -61.41116 | 10111 ft | 290 kts | 182° |
| 2026-04-27 13:21 | 16.01663 | -61.41197 | 10543 ft | 302 kts | 184° |
| 2026-04-27 13:21 | 15.99589 | -61.41792 | 10670 ft | 322 kts | 209° |
| 2026-04-27 13:22 | 15.97884 | -61.43361 | 10809 ft | 340 kts | 232° |
| 2026-04-27 13:22 | 15.96511 | -61.45440 | 11084 ft | 352 kts | 236° |
| 2026-04-27 13:22 | 15.95184 | -61.47589 | 11530 ft | 358 kts | 237° |
| 2026-04-27 13:22 | 15.93856 | -61.49772 | 12032 ft | 361 kts | 237° |
| 2026-04-27 13:23 | 15.92502 | -61.51992 | 12645 ft | 361 kts | 237° |
| 2026-04-27 13:23 | 15.91144 | -61.54204 | 13208 ft | 364 kts | 237° |
| 2026-04-27 13:23 | 15.89775 | -61.56418 | 13738 ft | 367 kts | 237° |
| 2026-04-27 13:23 | 15.88381 | -61.58658 | 14325 ft | 368 kts | 237° |
| 2026-04-27 13:24 | 15.86992 | -61.60883 | 14789 ft | 371 kts | 236° |
| 2026-04-27 13:24 | 15.85581 | -61.63137 | 15298 ft | 374 kts | 236° |
| 2026-04-27 13:24 | 15.84156 | -61.65411 | 15845 ft | 375 kts | 236° |
| 2026-04-27 13:24 | 15.82718 | -61.67703 | 16309 ft | 379 kts | 236° |
| 2026-04-27 13:25 | 15.81272 | -61.70006 | 16812 ft | 382 kts | 236° |
| 2026-04-27 13:25 | 15.79822 | -61.72317 | 17324 ft | 384 kts | 236° |
| 2026-04-27 13:25 | 15.78355 | -61.74652 | 17837 ft | 386 kts | 236° |
| 2026-04-27 13:25 | 15.76895 | -61.76975 | 18328 ft | 388 kts | 236° |
| 2026-04-27 13:26 | 15.75419 | -61.79324 | 18756 ft | 390 kts | 236° |
| 2026-04-27 13:26 | 15.73934 | -61.81685 | 19179 ft | 392 kts | 236° |
| 2026-04-27 13:26 | 15.72439 | -61.84062 | 19594 ft | 393 kts | 236° |
| 2026-04-27 13:26 | 15.70943 | -61.86441 | 20004 ft | 395 kts | 235° |
| 2026-04-27 13:27 | 15.69424 | -61.88853 | 20420 ft | 397 kts | 235° |
| 2026-04-27 13:27 | 15.67915 | -61.91251 | 20820 ft | 399 kts | 235° |
| 2026-04-27 13:27 | 15.66402 | -61.93654 | 21198 ft | 401 kts | 235° |
| 2026-04-27 13:27 | 15.64863 | -61.96097 | 21572 ft | 403 kts | 235° |
| 2026-04-27 13:28 | 15.63330 | -61.98529 | 21925 ft | 405 kts | 235° |
| 2026-04-27 13:28 | 15.61762 | -62.01017 | 22294 ft | 407 kts | 235° |
| 2026-04-27 13:28 | 15.60225 | -62.03455 | 22647 ft | 409 kts | 235° |
| 2026-04-27 13:28 | 15.58662 | -62.05934 | 22993 ft | 411 kts | 235° |
| 2026-04-27 13:29 | 15.57094 | -62.08418 | 23331 ft | 413 kts | 235° |
| 2026-04-27 13:29 | 15.55505 | -62.10935 | 23661 ft | 415 kts | 235° |
| 2026-04-27 13:29 | 15.53908 | -62.13465 | 23927 ft | 417 kts | 235° |
| 2026-04-27 13:29 | 15.52315 | -62.15988 | 24193 ft | 419 kts | 236° |
| 2026-04-27 13:30 | 15.50712 | -62.18525 | 24464 ft | 421 kts | 236° |
| 2026-04-27 13:30 | 15.49115 | -62.21053 | 24725 ft | 422 kts | 236° |
| 2026-04-27 13:30 | 15.47511 | -62.23589 | 24975 ft | 424 kts | 236° |
| 2026-04-27 13:30 | 15.45872 | -62.26181 | 25231 ft | 426 kts | 236° |
| 2026-04-27 13:31 | 15.44254 | -62.28739 | 25488 ft | 427 kts | 236° |
| 2026-04-27 13:31 | 15.42631 | -62.31305 | 25722 ft | 429 kts | 236° |
| 2026-04-27 13:31 | 15.40971 | -62.33927 | 25965 ft | 431 kts | 236° |
| 2026-04-27 13:31 | 15.39337 | -62.36508 | 26215 ft | 432 kts | 236° |
| 2026-04-27 13:32 | 15.37684 | -62.39118 | 26451 ft | 434 kts | 236° |
| 2026-04-27 13:32 | 15.36029 | -62.41731 | 26679 ft | 436 kts | 236° |
| 2026-04-27 13:32 | 15.34362 | -62.44360 | 26912 ft | 437 kts | 236° |
| 2026-04-27 13:32 | 15.32689 | -62.46997 | 27137 ft | 438 kts | 236° |
| 2026-04-27 13:33 | 15.30898 | -62.49593 | 27357 ft | 440 kts | 232° |
| 2026-04-27 13:33 | 15.29000 | -62.52099 | 27574 ft | 441 kts | 231° |
| 2026-04-27 13:33 | 15.27058 | -62.54570 | 27789 ft | 443 kts | 230° |
| 2026-04-27 13:33 | 15.25113 | -62.57022 | 27990 ft | 444 kts | 230° |
| 2026-04-27 13:34 | 15.23149 | -62.59507 | 28191 ft | 446 kts | 231° |
| 2026-04-27 13:34 | 15.21191 | -62.62003 | 28446 ft | 446 kts | 231° |
| 2026-04-27 13:34 | 15.19262 | -62.64480 | 28755 ft | 445 kts | 231° |
| 2026-04-27 13:34 | 15.17315 | -62.66993 | 29070 ft | 444 kts | 231° |
| 2026-04-27 13:35 | 15.15379 | -62.69497 | 29376 ft | 443 kts | 231° |
| 2026-04-27 13:35 | 15.13461 | -62.71982 | 29638 ft | 443 kts | 231° |
| 2026-04-27 13:35 | 15.11540 | -62.74471 | 29928 ft | 443 kts | 231° |
| 2026-04-27 13:35 | 15.09614 | -62.76966 | 30230 ft | 442 kts | 231° |
| 2026-04-27 13:36 | 15.07694 | -62.79451 | 30504 ft | 441 kts | 231° |
| 2026-04-27 13:36 | 15.05781 | -62.81927 | 30796 ft | 440 kts | 231° |
| 2026-04-27 13:36 | 15.03887 | -62.84377 | 31089 ft | 438 kts | 231° |
| 2026-04-27 13:36 | 15.01975 | -62.86849 | 31355 ft | 438 kts | 231° |
| 2026-04-27 13:37 | 15.00090 | -62.89285 | 31606 ft | 437 kts | 231° |
| 2026-04-27 13:37 | 14.98195 | -62.91734 | 31886 ft | 436 kts | 231° |
| 2026-04-27 13:37 | 14.96301 | -62.94180 | 32071 ft | 437 kts | 231° |
| 2026-04-27 13:37 | 14.94395 | -62.96642 | 32057 ft | 438 kts | 231° |
| 2026-04-27 13:38 | 14.90603 | -63.01535 | 32058 ft | 435 kts | 231° |
| 2026-04-27 13:38 | 14.86810 | -63.06427 | 32066 ft | 433 kts | 231° |
| 2026-04-27 13:39 | 14.83061 | -63.11259 | 32066 ft | 431 kts | 231° |
| 2026-04-27 13:39 | 14.79305 | -63.16098 | 32064 ft | 431 kts | 231° |
| 2026-04-27 13:40 | 14.75552 | -63.20930 | 32064 ft | 432 kts | 231° |
| 2026-04-27 13:40 | 14.71806 | -63.25750 | 32064 ft | 433 kts | 231° |
| 2026-04-27 13:41 | 14.68013 | -63.30627 | 32065 ft | 435 kts | 231° |
| 2026-04-27 13:41 | 14.64226 | -63.35494 | 32064 ft | 436 kts | 231° |
| 2026-04-27 13:42 | 14.61037 | -63.39589 | 32061 ft | 437 kts | 231° |
| 2026-04-27 13:42 | 14.57224 | -63.44484 | 32063 ft | 438 kts | 231° |
| 2026-04-27 13:43 | 14.53410 | -63.49377 | 32060 ft | 439 kts | 231° |
| 2026-04-27 13:43 | 14.49557 | -63.54316 | 32059 ft | 440 kts | 231° |
| 2026-04-27 13:44 | 14.45712 | -63.59242 | 32057 ft | 440 kts | 231° |
| 2026-04-27 13:44 | 14.41883 | -63.64146 | 32056 ft | 440 kts | 231° |
| 2026-04-27 13:45 | 14.38051 | -63.69050 | 32055 ft | 439 kts | 231° |
| 2026-04-27 13:45 | 14.34195 | -63.73981 | 32058 ft | 439 kts | 231° |
| 2026-04-27 13:46 | 14.30375 | -63.78864 | 32055 ft | 438 kts | 231° |
| 2026-04-27 13:46 | 14.26555 | -63.83743 | 32058 ft | 438 kts | 231° |
| 2026-04-27 13:47 | 14.22716 | -63.88644 | 32055 ft | 437 kts | 231° |
| 2026-04-27 13:47 | 14.18897 | -63.93518 | 32058 ft | 437 kts | 230° |
| 2026-04-27 13:48 | 14.15076 | -63.98390 | 32055 ft | 437 kts | 230° |
| 2026-04-27 13:48 | 14.11257 | -64.03256 | 32057 ft | 437 kts | 231° |
| 2026-04-27 13:49 | 14.07435 | -64.08125 | 32055 ft | 437 kts | 230° |
| 2026-04-27 13:49 | 14.03612 | -64.12991 | 32052 ft | 437 kts | 230° |
| 2026-04-27 13:50 | 13.99782 | -64.17864 | 32053 ft | 438 kts | 230° |
| 2026-04-27 13:50 | 13.95943 | -64.22747 | 32051 ft | 438 kts | 230° |
| 2026-04-27 13:51 | 13.92191 | -64.27671 | 32042 ft | 439 kts | 237° |
| 2026-04-27 13:51 | 13.89866 | -64.33459 | 32052 ft | 442 kts | 255° |
| 2026-04-27 13:52 | 13.89205 | -64.39781 | 32053 ft | 445 kts | 264° |
| 2026-04-27 13:52 | 13.88831 | -64.46141 | 32057 ft | 445 kts | 264° |
| 2026-04-27 13:53 | 13.88224 | -64.55696 | 32051 ft | 445 kts | 264° |
| 2026-04-27 13:54 | 13.87784 | -64.62044 | 32052 ft | 445 kts | 264° |
| 2026-04-27 13:54 | 13.87333 | -64.68430 | 32047 ft | 445 kts | 264° |
| 2026-04-27 13:55 | 13.86882 | -64.74770 | 32046 ft | 445 kts | 264° |
| 2026-04-27 13:55 | 13.86431 | -64.81101 | 32046 ft | 444 kts | 264° |
| 2026-04-27 13:56 | 13.85978 | -64.87455 | 32047 ft | 444 kts | 264° |
| 2026-04-27 13:56 | 13.85524 | -64.93791 | 32048 ft | 444 kts | 264° |
| 2026-04-27 13:57 | 13.85068 | -65.00131 | 32046 ft | 444 kts | 264° |
| 2026-04-27 13:57 | 13.84612 | -65.06463 | 32044 ft | 444 kts | 264° |
| 2026-04-27 13:58 | 13.84153 | -65.12793 | 32044 ft | 444 kts | 264° |
| 2026-04-27 13:58 | 13.83692 | -65.19135 | 32047 ft | 444 kts | 264° |
| 2026-04-27 13:59 | 13.83230 | -65.25482 | 32047 ft | 444 kts | 264° |
| 2026-04-27 13:59 | 13.82764 | -65.31840 | 32041 ft | 445 kts | 264° |
| 2026-04-27 14:00 | 13.82299 | -65.38184 | 32046 ft | 445 kts | 264° |
| 2026-04-27 14:00 | 13.81830 | -65.44543 | 32044 ft | 445 kts | 264° |
| 2026-04-27 14:01 | 13.81361 | -65.50879 | 32041 ft | 445 kts | 264° |
| 2026-04-27 14:01 | 13.80891 | -65.57223 | 32043 ft | 445 kts | 264° |
| 2026-04-27 14:02 | 13.80417 | -65.63579 | 32044 ft | 445 kts | 264° |
| 2026-04-27 14:02 | 13.79942 | -65.69936 | 32042 ft | 445 kts | 264° |
| 2026-04-27 14:03 | 13.79467 | -65.76267 | 32039 ft | 445 kts | 264° |
| 2026-04-27 14:03 | 13.78988 | -65.82626 | 32036 ft | 445 kts | 264° |
| 2026-04-27 14:04 | 13.78508 | -65.88987 | 32033 ft | 445 kts | 264° |
| 2026-04-27 14:04 | 13.78027 | -65.95333 | 32034 ft | 445 kts | 264° |
| 2026-04-27 14:05 | 13.77546 | -66.01660 | 32036 ft | 445 kts | 264° |
| 2026-04-27 14:05 | 13.77060 | -66.08031 | 32035 ft | 445 kts | 264° |
| 2026-04-27 14:06 | 13.76574 | -66.14375 | 32037 ft | 444 kts | 264° |
| 2026-04-27 14:06 | 13.76088 | -66.20703 | 32035 ft | 444 kts | 264° |
| 2026-04-27 14:07 | 13.75601 | -66.27028 | 32035 ft | 444 kts | 264° |
| 2026-04-27 14:07 | 13.75111 | -66.33368 | 32036 ft | 444 kts | 264° |
| 2026-04-27 14:08 | 13.74621 | -66.39672 | 32033 ft | 444 kts | 264° |
| 2026-04-27 14:08 | 13.74130 | -66.45989 | 32037 ft | 444 kts | 264° |
| 2026-04-27 14:09 | 13.73635 | -66.52318 | 32033 ft | 444 kts | 264° |
| 2026-04-27 14:09 | 13.73138 | -66.58662 | 32034 ft | 444 kts | 264° |
| 2026-04-27 14:10 | 13.72642 | -66.64974 | 32031 ft | 444 kts | 264° |
| 2026-04-27 14:10 | 13.72140 | -66.71341 | 32035 ft | 445 kts | 264° |
| 2026-04-27 14:11 | 13.71637 | -66.77685 | 32033 ft | 445 kts | 264° |
| 2026-04-27 14:11 | 13.71134 | -66.84027 | 32031 ft | 446 kts | 264° |
| 2026-04-27 14:12 | 13.70626 | -66.90408 | 32034 ft | 447 kts | 263° |
| 2026-04-27 14:12 | 13.70116 | -66.96783 | 32034 ft | 448 kts | 263° |
| 2026-04-27 14:13 | 13.69605 | -67.03161 | 32030 ft | 449 kts | 263° |
| 2026-04-27 14:13 | 13.69092 | -67.09535 | 32031 ft | 449 kts | 263° |
| 2026-04-27 14:14 | 13.68573 | -67.15962 | 32030 ft | 450 kts | 263° |
| 2026-04-27 14:14 | 13.68053 | -67.22387 | 32031 ft | 451 kts | 263° |
| 2026-04-27 14:15 | 13.67533 | -67.28791 | 32026 ft | 451 kts | 263° |
| 2026-04-27 14:15 | 13.67007 | -67.35249 | 32028 ft | 451 kts | 263° |
| 2026-04-27 14:16 | 13.66485 | -67.41641 | 32025 ft | 451 kts | 263° |
| 2026-04-27 14:16 | 13.65930 | -67.48055 | 32023 ft | 449 kts | 258° |
| 2026-04-27 14:16 | 13.65051 | -67.51115 | 32025 ft | 444 kts | 242° |
| 2026-04-27 14:17 | 13.63474 | -67.53828 | 32045 ft | 442 kts | 235° |
| 2026-04-27 14:17 | 13.59993 | -67.59031 | 32022 ft | 442 kts | 234° |
| 2026-04-27 14:18 | 13.57098 | -67.63324 | 32008 ft | 432 kts | 234° |
| 2026-04-27 14:18 | 13.53722 | -67.68402 | 32016 ft | 427 kts | 234° |
| 2026-04-27 14:19 | 13.50384 | -67.73465 | 31659 ft | 427 kts | 235° |
| 2026-04-27 14:19 | 13.48739 | -67.75968 | 31311 ft | 421 kts | 235° |
| 2026-04-27 14:19 | 13.47113 | -67.78441 | 30905 ft | 418 kts | 235° |
| 2026-04-27 14:19 | 13.45495 | -67.80902 | 30497 ft | 415 kts | 235° |
| 2026-04-27 14:20 | 13.43890 | -67.83342 | 30074 ft | 412 kts | 235° |
| 2026-04-27 14:20 | 13.42289 | -67.85775 | 29579 ft | 410 kts | 235° |
| 2026-04-27 14:20 | 13.40687 | -67.88208 | 29118 ft | 407 kts | 235° |
| 2026-04-27 14:20 | 13.39112 | -67.90601 | 28673 ft | 403 kts | 235° |
| 2026-04-27 14:21 | 13.37549 | -67.92973 | 28245 ft | 400 kts | 235° |
| 2026-04-27 14:21 | 13.35985 | -67.95346 | 27811 ft | 397 kts | 235° |
| 2026-04-27 14:21 | 13.34442 | -67.97687 | 27386 ft | 394 kts | 235° |
| 2026-04-27 14:21 | 13.32918 | -67.99999 | 26971 ft | 391 kts | 235° |
| 2026-04-27 14:22 | 13.31390 | -68.02317 | 26552 ft | 388 kts | 235° |
| 2026-04-27 14:22 | 13.29876 | -68.04612 | 26140 ft | 386 kts | 235° |
| 2026-04-27 14:22 | 13.28372 | -68.06892 | 25728 ft | 384 kts | 235° |
| 2026-04-27 14:22 | 13.26895 | -68.09129 | 25317 ft | 382 kts | 235° |
| 2026-04-27 14:23 | 13.25403 | -68.11389 | 24897 ft | 381 kts | 235° |
| 2026-04-27 14:23 | 13.23925 | -68.13627 | 24480 ft | 379 kts | 235° |
| 2026-04-27 14:23 | 13.22429 | -68.15892 | 24061 ft | 378 kts | 235° |
| 2026-04-27 14:23 | 13.20972 | -68.18096 | 23650 ft | 378 kts | 235° |
| 2026-04-27 14:24 | 13.19483 | -68.20349 | 23179 ft | 376 kts | 234° |
| 2026-04-27 14:24 | 13.18032 | -68.22546 | 22746 ft | 374 kts | 234° |
| 2026-04-27 14:24 | 13.16580 | -68.24742 | 22324 ft | 371 kts | 234° |
| 2026-04-27 14:24 | 13.15133 | -68.26930 | 21922 ft | 368 kts | 234° |
| 2026-04-27 14:25 | 13.13692 | -68.29108 | 21515 ft | 366 kts | 234° |
| 2026-04-27 14:25 | 13.12267 | -68.31262 | 21121 ft | 364 kts | 234° |
| 2026-04-27 14:25 | 13.10861 | -68.33387 | 20734 ft | 362 kts | 234° |
| 2026-04-27 14:25 | 13.09451 | -68.35517 | 20339 ft | 360 kts | 234° |
| 2026-04-27 14:26 | 13.08055 | -68.37626 | 19945 ft | 358 kts | 234° |
| 2026-04-27 14:26 | 13.06648 | -68.39749 | 19555 ft | 356 kts | 234° |
| 2026-04-27 14:26 | 13.05260 | -68.41844 | 19158 ft | 355 kts | 234° |
| 2026-04-27 14:26 | 13.03876 | -68.43933 | 18765 ft | 355 kts | 234° |
| 2026-04-27 14:27 | 13.02493 | -68.46019 | 18364 ft | 354 kts | 234° |
| 2026-04-27 14:27 | 13.01096 | -68.48127 | 17923 ft | 353 kts | 234° |
| 2026-04-27 14:27 | 12.99733 | -68.50183 | 17527 ft | 351 kts | 233° |
| 2026-04-27 14:27 | 12.98351 | -68.52267 | 17124 ft | 349 kts | 233° |
| 2026-04-27 14:28 | 12.97004 | -68.54298 | 16740 ft | 347 kts | 233° |
| 2026-04-27 14:28 | 12.95646 | -68.56346 | 16352 ft | 345 kts | 233° |
| 2026-04-27 14:28 | 12.94286 | -68.58395 | 15971 ft | 344 kts | 233° |
| 2026-04-27 14:28 | 12.92956 | -68.60398 | 15588 ft | 342 kts | 233° |
| 2026-04-27 14:29 | 12.91606 | -68.62432 | 15194 ft | 342 kts | 233° |
| 2026-04-27 14:29 | 12.90273 | -68.64438 | 14813 ft | 341 kts | 233° |
| 2026-04-27 14:29 | 12.88944 | -68.66438 | 14431 ft | 340 kts | 233° |
| 2026-04-27 14:29 | 12.87622 | -68.68429 | 14046 ft | 340 kts | 233° |
| 2026-04-27 14:30 | 12.86281 | -68.70448 | 13635 ft | 340 kts | 233° |
| 2026-04-27 14:30 | 12.84945 | -68.72458 | 13225 ft | 338 kts | 233° |
| 2026-04-27 14:30 | 12.83632 | -68.74432 | 12847 ft | 337 kts | 233° |
| 2026-04-27 14:30 | 12.82319 | -68.76407 | 12469 ft | 335 kts | 233° |
| 2026-04-27 14:31 | 12.81014 | -68.78369 | 12090 ft | 334 kts | 233° |
| 2026-04-27 14:31 | 12.79698 | -68.80348 | 11713 ft | 332 kts | 233° |
| 2026-04-27 14:31 | 12.78407 | -68.82289 | 11344 ft | 331 kts | 233° |
| 2026-04-27 14:31 | 12.77104 | -68.84247 | 10976 ft | 330 kts | 233° |
| 2026-04-27 14:32 | 12.75820 | -68.86177 | 10615 ft | 328 kts | 233° |
| 2026-04-27 14:32 | 12.74551 | -68.88083 | 10432 ft | 321 kts | 233° |
| 2026-04-27 14:32 | 12.73298 | -68.89968 | 10263 ft | 314 kts | 233° |
| 2026-04-27 14:32 | 12.72082 | -68.91793 | 10131 ft | 305 kts | 233° |
| 2026-04-27 14:33 | 12.70903 | -68.93564 | 9987 ft | 298 kts | 233° |
| 2026-04-27 14:33 | 12.69746 | -68.95299 | 9749 ft | 294 kts | 233° |
| 2026-04-27 14:33 | 12.68600 | -68.97019 | 9515 ft | 290 kts | 233° |
| 2026-04-27 14:33 | 12.67470 | -68.98714 | 9286 ft | 286 kts | 233° |
| 2026-04-27 14:34 | 12.66351 | -69.00393 | 9065 ft | 283 kts | 232° |
| 2026-04-27 14:34 | 12.65251 | -69.02042 | 8856 ft | 283 kts | 232° |
| 2026-04-27 14:34 | 12.64131 | -69.03721 | 8640 ft | 282 kts | 232° |
| 2026-04-27 14:34 | 12.63034 | -69.05366 | 8420 ft | 282 kts | 232° |
| 2026-04-27 14:35 | 12.61928 | -69.07027 | 8208 ft | 281 kts | 232° |
| 2026-04-27 14:35 | 12.60836 | -69.08664 | 7990 ft | 281 kts | 233° |
| 2026-04-27 14:35 | 12.59723 | -69.10333 | 7775 ft | 281 kts | 233° |
| 2026-04-27 14:35 | 12.58626 | -69.11977 | 7555 ft | 281 kts | 232° |
| 2026-04-27 14:36 | 12.57529 | -69.13620 | 7338 ft | 281 kts | 233° |
| 2026-04-27 14:36 | 12.56403 | -69.15271 | 7120 ft | 280 kts | 226° |
| 2026-04-27 14:36 | 12.54894 | -69.16454 | 6890 ft | 271 kts | 199° |
| 2026-04-27 14:36 | 12.53106 | -69.16858 | 6702 ft | 263 kts | 178° |
| 2026-04-27 14:37 | 12.51287 | -69.16797 | 6511 ft | 261 kts | 174° |
| 2026-04-27 14:37 | 12.49474 | -69.16677 | 6297 ft | 261 kts | 173° |
| 2026-04-27 14:37 | 12.47674 | -69.16553 | 6082 ft | 260 kts | 173° |
| 2026-04-27 14:37 | 12.45866 | -69.16434 | 5871 ft | 259 kts | 173° |
| 2026-04-27 14:38 | 12.44059 | -69.16321 | 5663 ft | 257 kts | 173° |
| 2026-04-27 14:38 | 12.42280 | -69.16212 | 5466 ft | 256 kts | 173° |
| 2026-04-27 14:38 | 12.40523 | -69.16109 | 5281 ft | 252 kts | 173° |
| 2026-04-27 14:38 | 12.38820 | -69.16011 | 5213 ft | 236 kts | 173° |
| 2026-04-27 14:39 | 12.37229 | -69.15921 | 5112 ft | 224 kts | 173° |
| 2026-04-27 14:39 | 12.35717 | -69.15835 | 5013 ft | 211 kts | 173° |
| 2026-04-27 14:39 | 12.34289 | -69.15753 | 4703 ft | 208 kts | 172° |
| 2026-04-27 14:39 | 12.32853 | -69.15694 | 4447 ft | 204 kts | 180° |
| 2026-04-27 14:40 | 12.31481 | -69.16022 | 4276 ft | 197 kts | 190° |
| 2026-04-27 14:40 | 12.30195 | -69.16380 | 4091 ft | 188 kts | 188° |
| 2026-04-27 14:40 | 12.28951 | -69.16711 | 3966 ft | 182 kts | 188° |
| 2026-04-27 14:40 | 12.27723 | -69.17033 | 3822 ft | 182 kts | 188° |
| 2026-04-27 14:41 | 12.26499 | -69.17354 | 3673 ft | 182 kts | 188° |
| 2026-04-27 14:41 | 12.25274 | -69.17486 | 3505 ft | 174 kts | 162° |
| 2026-04-27 14:41 | 12.24208 | -69.17010 | 3398 ft | 166 kts | 134° |
| 2026-04-27 14:41 | 12.23673 | -69.15999 | 3299 ft | 162 kts | 113° |
| 2026-04-27 14:42 | 12.23232 | -69.14928 | 3152 ft | 164 kts | 111° |
| 2026-04-27 14:42 | 12.22845 | -69.13824 | 2999 ft | 165 kts | 110° |
| 2026-04-27 14:42 | 12.22477 | -69.12696 | 2865 ft | 166 kts | 108° |
| 2026-04-27 14:42 | 12.22188 | -69.11575 | 2805 ft | 164 kts | 105° |
| 2026-04-27 14:43 | 12.21939 | -69.10461 | 2596 ft | 154 kts | 104° |
| 2026-04-27 14:43 | 12.21728 | -69.09468 | 2427 ft | 134 kts | 105° |
| 2026-04-27 14:43 | 12.21544 | -69.08594 | 2297 ft | 120 kts | 105° |
| 2026-04-27 14:43 | 12.21361 | -69.07733 | 2112 ft | 131 kts | 104° |
| 2026-04-27 14:44 | 12.21163 | -69.06795 | 1950 ft | 136 kts | 104° |
| 2026-04-27 14:44 | 12.20969 | -69.05870 | 1764 ft | 132 kts | 105° |
| 2026-04-27 14:44 | 12.20778 | -69.04965 | 1572 ft | 127 kts | 103° |
| 2026-04-27 14:44 | 12.20599 | -69.04046 | 1434 ft | 137 kts | 102° |
| 2026-04-27 14:45 | 12.20388 | -69.03080 | 1240 ft | 135 kts | 102° |
| 2026-04-27 14:45 | 12.20190 | -69.02150 | 1060 ft | 137 kts | 103° |
| 2026-04-27 14:45 | 12.19979 | -69.01185 | 886 ft | 140 kts | 106° |
| 2026-04-27 14:45 | 12.19777 | -69.00205 | 797 ft | 140 kts | 105° |
| 2026-04-27 14:46 | 12.19588 | -68.99223 | 688 ft | 139 kts | 105° |
| 2026-04-27 14:46 | 12.19358 | -68.98255 | 545 ft | 143 kts | 100° |
| 2026-04-27 14:46 | 12.19159 | -68.97254 | 271 ft | 146 kts | 97° |
| 2026-04-27 14:46 | 12.18953 | -68.96279 | 48 ft | 126 kts | 100° |
| 2026-04-27 14:47 | 12.18803 | -68.95553 | 39 ft | 75 kts | 103° |
| 2026-04-27 14:47 | 12.18726 | -68.95193 | 41 ft | 44 kts | 102° |
| 2026-04-27 14:47 | 12.18666 | -68.94908 | 43 ft | 37 kts | 102° |
| 2026-04-27 14:47 | 12.18616 | -68.94673 | 46 ft | 28 kts | 102° |
| 2026-04-27 14:48 | 12.18584 | -68.94522 | 46 ft | 14 kts | 103° |
| 2026-04-27 14:48 | 12.18444 | -68.94486 | 44 ft | 0 kts | 205° |
| 2026-04-27 14:49 | 12.18434 | -68.94492 | 44 ft | 8 kts | 213° |
| 2026-04-27 14:49 | 12.18423 | -68.94598 | 41 ft | 22 kts | 283° |
| 2026-04-27 14:49 | 12.18456 | -68.94755 | 44 ft | 22 kts | 282° |
| 2026-04-27 14:50 | 12.18489 | -68.94908 | 43 ft | 22 kts | 282° |
| 2026-04-27 14:50 | 12.18520 | -68.95058 | 43 ft | 21 kts | 282° |
| 2026-04-27 14:50 | 12.18553 | -68.95215 | 41 ft | 26 kts | 282° |
| 2026-04-27 14:50 | 12.18590 | -68.95393 | 42 ft | 20 kts | 282° |
| 2026-04-27 14:51 | 12.18611 | -68.95492 | 40 ft | 9 kts | 282° |
| 2026-04-27 14:51 | 12.18614 | -68.95501 | 42 ft | 0 kts | 282° |
| 2026-04-27 14:51 | 12.18621 | -68.95538 | 42 ft | 11 kts | 282° |
| 2026-04-27 14:51 | 12.18632 | -68.95588 | 42 ft | 11 kts | 282° |
| 2026-04-27 14:52 | 12.18652 | -68.95683 | 42 ft | 5 kts | 282° |
| 2026-04-27 14:52 | 12.18636 | -68.95712 | 39 ft | 5 kts | 197° |
| 2026-04-27 14:52 | 12.18599 | -68.95718 | 41 ft | 5 kts | 189° |
| 2026-04-27 14:52 | 12.18568 | -68.95724 | 42 ft | 3 kts | 189° |
| 2026-04-27 14:53 | 12.18557 | -68.95725 | 41 ft | 1 kts | 189° |
| 2026-04-27 14:53 | 12.18550 | -68.95727 | 42 ft | 1 kts | 189° |
| 2026-04-27 14:53 | 12.18549 | -68.95727 | 42 ft | 0 kts | 189° |